Boudicca — C6VA3 — position and weather

sailwx.info

Track history (hours):
 
Tides and Currents Weather Stations Pressure Air Temp Water Temp Dewpoint Dewpoint Depression Visibility Wind Speed Wind Dir Waves Ship Positions

Boudicca

Last reported at 2018-Feb-02 20:38 UTC. Time now 2018-Feb-18 03:25 UTC.
Position S 30°32' E 031°02'.
Warning: this ship's position is 15 days out of date.

Length 205 m; draft 7.5 m.

Type: Passenger vessel. MMSI: 309964000.

Date/timePositionNaut miles runAvg speedWind from/ knotsBaromVisibWave heightAir tempDewpointWater temp
2018-Feb-02 20:38S 30°32' E 031°02'216.3
2018-Feb-02 20:29S 30°30' E 031°03'816.1
2018-Feb-02 20:00S 30°24' E 031°08'1615.8
2018-Feb-02 19:00S 30°11' E 031°18'815.2
2018-Feb-02 18:30S 30°04' E 031°23'815.2
2018-Feb-02 18:00S 29°58' E 031°28'715.1
2018-Feb-02 17:30S 29°52' E 031°33'714.2
2018-Feb-02 17:00S 29°46' E 031°37'713.9
2018-Feb-02 16:30S 29°40' E 031°42'1815.7
2018-Feb-02 15:23S 29°25' E 031°53'1618.3
2018-Feb-02 14:31S 29°12' E 032°03'918.4
2018-Feb-02 14:00S 29°04' E 032°09'1020.0
2018-Feb-02 13:30S 28°56' E 032°15'37 0.9
2018-Jan-31 20:55S 29°31' E 031°60'4 8.5
2018-Jan-31 20:30S 29°33' E 031°56'4 8.3
2018-Jan-31 20:00S 29°34' E 031°52'4 8.0
2018-Jan-31 19:31S 29°35' E 031°47'4 8.3
2018-Jan-31 18:59S 29°36' E 031°43'4 8.3
2018-Jan-31 18:30S 29°37' E 031°38'4 8.6
2018-Jan-31 18:00S 29°39' E 031°34'4 9.0
2018-Jan-31 17:30S 29°40' E 031°29'5 9.1
2018-Jan-31 17:00S 29°42' E 031°24'22 4.3
2018-Jan-31 11:54S 29°52' E 031°02'0 0.0
2018-Jan-31 11:30S 29°52' E 031°02'0 0.0
2018-Jan-31 11:00S 29°52' E 031°02'0 0.0
2018-Jan-31 10:30S 29°52' E 031°02'0 0.0
2018-Jan-31 10:00S 29°52' E 031°02'0 0.0
2018-Jan-31 09:30S 29°52' E 031°02'0 0.0
2018-Jan-31 09:00S 29°52' E 031°02'0 0.0
2018-Jan-31 08:30S 29°52' E 031°02'0 0.0
2018-Jan-31 08:00S 29°52' E 031°02'0 0.0
2018-Jan-31 07:30S 29°52' E 031°02'0 0.0
2018-Jan-31 07:00S 29°52' E 031°02'0 0.0
2018-Jan-31 06:30S 29°52' E 031°02'0 0.0
2018-Jan-31 05:57S 29°52' E 031°02'0 0.0
2018-Jan-31 05:30S 29°52' E 031°02'0 0.0
2018-Jan-31 05:00S 29°52' E 031°02'0 0.0
2018-Jan-31 04:30S 29°52' E 031°02'0 0.0
2018-Jan-31 03:54S 29°52' E 031°02'0 0.0
2018-Jan-31 03:30S 29°52' E 031°02'0 0.0
2018-Jan-31 02:54S 29°52' E 031°02'0 0.0
2018-Jan-31 02:30S 29°52' E 031°02'0 0.0
2018-Jan-31 01:48S 29°52' E 031°02'0 0.0
2018-Jan-31 01:27S 29°52' E 031°02'0 0.0
2018-Jan-31 01:00S 29°52' E 031°02'0 0.0
2018-Jan-30 23:54S 29°52' E 031°02'0 0.0
2018-Jan-30 23:27S 29°52' E 031°02'0 0.0
2018-Jan-30 22:57S 29°52' E 031°02'0 0.0
2018-Jan-30 22:30S 29°52' E 031°02'0 0.0
2018-Jan-30 21:30S 29°52' E 031°02'0 0.0
2018-Jan-30 21:00S 29°52' E 031°02'0 0.0
2018-Jan-30 20:30S 29°52' E 031°02'0 0.0
2018-Jan-30 20:00S 29°52' E 031°02'0 0.0
2018-Jan-30 19:30S 29°52' E 031°02'0 0.0
2018-Jan-30 18:57S 29°52' E 031°02'0 0.0
2018-Jan-30 18:30S 29°52' E 031°02'0 0.0
2018-Jan-30 17:57S 29°52' E 031°02'0 0.0
2018-Jan-30 17:30S 29°52' E 031°02'0 0.0
2018-Jan-30 17:00S 29°52' E 031°02'0 0.0
2018-Jan-30 16:27S 29°52' E 031°02'0 0.0
2018-Jan-30 16:00S 29°52' E 031°02'0 0.0
2018-Jan-30 15:24S 29°52' E 031°02'0 0.0
2018-Jan-30 15:00S 29°52' E 031°02'0 0.0
2018-Jan-30 14:30S 29°52' E 031°02'0 0.0
2018-Jan-30 13:30S 29°52' E 031°02'0 0.0
2018-Jan-30 13:00S 29°52' E 031°02'0 0.0
2018-Jan-30 12:30S 29°52' E 031°02'0 0.0
2018-Jan-30 12:00S 29°52' E 031°02'0 0.0
2018-Jan-30 11:30S 29°52' E 031°02'0 0.0
2018-Jan-30 10:30S 29°52' E 031°02'0 0.0
2018-Jan-30 09:30S 29°52' E 031°02'0 0.0
2018-Jan-30 08:57S 29°52' E 031°02'0 0.0
2018-Jan-30 08:30S 29°52' E 031°02'0 0.0
2018-Jan-30 08:00S 29°52' E 031°02'0 0.0
2018-Jan-30 07:30S 29°52' E 031°02'0 0.0
2018-Jan-30 07:00S 29°52' E 031°02'0 0.0
2018-Jan-30 06:30S 29°52' E 031°02'0 0.0
2018-Jan-30 06:00S 29°52' E 031°02'0 1.0
2018-Jan-30 05:30S 29°53' E 031°02'4 8.7
2018-Jan-30 05:00S 29°50' E 031°06'713.9
2018-Jan-30 04:30S 29°55' E 031°12'816.2
2018-Jan-30 04:00S 30°03' E 031°10'815.7
2018-Jan-30 03:30S 30°11' E 031°09'815.5
2018-Jan-30 03:00S 30°18' E 031°08'815.6
2018-Jan-30 02:30S 30°26' E 031°07'815.2
2018-Jan-30 02:00S 30°34' E 031°04'  
Track history (hours):
 
Tides and Currents Weather Stations Pressure Air Temp Water Temp Dewpoint Dewpoint Depression Visibility Wind Speed Wind Dir Waves Ship Positions

Boudicca

Last reported at 2018-Feb-02 20:38 UTC. Time now 2018-Feb-18 03:25 UTC.
Position S 30°32' E 031°02'.
Warning: this ship's position is 15 days out of date.

Length 205 m; draft 7.5 m.

Type: Passenger vessel. MMSI: 309964000.

Date/timePositionNaut miles runAvg speedWind from/ knotsBaromVisibWave heightAir tempDewpointWater temp
2018-Feb-02 20:38S 30°32' E 031°02'216.3
2018-Feb-02 20:29S 30°30' E 031°03'816.1
2018-Feb-02 20:00S 30°24' E 031°08'1615.8
2018-Feb-02 19:00S 30°11' E 031°18'815.2
2018-Feb-02 18:30S 30°04' E 031°23'815.2
2018-Feb-02 18:00S 29°58' E 031°28'715.1
2018-Feb-02 17:30S 29°52' E 031°33'714.2
2018-Feb-02 17:00S 29°46' E 031°37'713.9
2018-Feb-02 16:30S 29°40' E 031°42'1815.7
2018-Feb-02 15:23S 29°25' E 031°53'1618.3
2018-Feb-02 14:31S 29°12' E 032°03'918.4
2018-Feb-02 14:00S 29°04' E 032°09'1020.0
2018-Feb-02 13:30S 28°56' E 032°15'37 0.9
2018-Jan-31 20:55S 29°31' E 031°60'4 8.5
2018-Jan-31 20:30S 29°33' E 031°56'4 8.3
2018-Jan-31 20:00S 29°34' E 031°52'4 8.0
2018-Jan-31 19:31S 29°35' E 031°47'4 8.3
2018-Jan-31 18:59S 29°36' E 031°43'4 8.3
2018-Jan-31 18:30S 29°37' E 031°38'4 8.6
2018-Jan-31 18:00S 29°39' E 031°34'4 9.0
2018-Jan-31 17:30S 29°40' E 031°29'5 9.1
2018-Jan-31 17:00S 29°42' E 031°24'22 4.3
2018-Jan-31 11:54S 29°52' E 031°02'0 0.0
2018-Jan-31 11:30S 29°52' E 031°02'0 0.0
2018-Jan-31 11:00S 29°52' E 031°02'0 0.0
2018-Jan-31 10:30S 29°52' E 031°02'0 0.0
2018-Jan-31 10:00S 29°52' E 031°02'0 0.0
2018-Jan-31 09:30S 29°52' E 031°02'0 0.0
2018-Jan-31 09:00S 29°52' E 031°02'0 0.0
2018-Jan-31 08:30S 29°52' E 031°02'0 0.0
2018-Jan-31 08:00S 29°52' E 031°02'0 0.0
2018-Jan-31 07:30S 29°52' E 031°02'0 0.0
2018-Jan-31 07:00S 29°52' E 031°02'0 0.0
2018-Jan-31 06:30S 29°52' E 031°02'0 0.0
2018-Jan-31 05:57S 29°52' E 031°02'0 0.0
2018-Jan-31 05:30S 29°52' E 031°02'0 0.0
2018-Jan-31 05:00S 29°52' E 031°02'0 0.0
2018-Jan-31 04:30S 29°52' E 031°02'0 0.0
2018-Jan-31 03:54S 29°52' E 031°02'0 0.0
2018-Jan-31 03:30S 29°52' E 031°02'0 0.0
2018-Jan-31 02:54S 29°52' E 031°02'0 0.0
2018-Jan-31 02:30S 29°52' E 031°02'0 0.0
2018-Jan-31 01:48S 29°52' E 031°02'0 0.0
2018-Jan-31 01:27S 29°52' E 031°02'0 0.0
2018-Jan-31 01:00S 29°52' E 031°02'0 0.0
2018-Jan-30 23:54S 29°52' E 031°02'0 0.0
2018-Jan-30 23:27S 29°52' E 031°02'0 0.0
2018-Jan-30 22:57S 29°52' E 031°02'0 0.0
2018-Jan-30 22:30S 29°52' E 031°02'0 0.0
2018-Jan-30 21:30S 29°52' E 031°02'0 0.0
2018-Jan-30 21:00S 29°52' E 031°02'0 0.0
2018-Jan-30 20:30S 29°52' E 031°02'0 0.0
2018-Jan-30 20:00S 29°52' E 031°02'0 0.0
2018-Jan-30 19:30S 29°52' E 031°02'0 0.0
2018-Jan-30 18:57S 29°52' E 031°02'0 0.0
2018-Jan-30 18:30S 29°52' E 031°02'0 0.0
2018-Jan-30 17:57S 29°52' E 031°02'0 0.0
2018-Jan-30 17:30S 29°52' E 031°02'0 0.0
2018-Jan-30 17:00S 29°52' E 031°02'0 0.0
2018-Jan-30 16:27S 29°52' E 031°02'0 0.0
2018-Jan-30 16:00S 29°52' E 031°02'0 0.0
2018-Jan-30 15:24S 29°52' E 031°02'0 0.0
2018-Jan-30 15:00S 29°52' E 031°02'0 0.0
2018-Jan-30 14:30S 29°52' E 031°02'0 0.0
2018-Jan-30 13:30S 29°52' E 031°02'0 0.0
2018-Jan-30 13:00S 29°52' E 031°02'0 0.0
2018-Jan-30 12:30S 29°52' E 031°02'0 0.0
2018-Jan-30 12:00S 29°52' E 031°02'0 0.0
2018-Jan-30 11:30S 29°52' E 031°02'0 0.0
2018-Jan-30 10:30S 29°52' E 031°02'0 0.0
2018-Jan-30 09:30S 29°52' E 031°02'0 0.0
2018-Jan-30 08:57S 29°52' E 031°02'0 0.0
2018-Jan-30 08:30S 29°52' E 031°02'0 0.0
2018-Jan-30 08:00S 29°52' E 031°02'0 0.0
2018-Jan-30 07:30S 29°52' E 031°02'0 0.0
2018-Jan-30 07:00S 29°52' E 031°02'0 0.0
2018-Jan-30 06:30S 29°52' E 031°02'0 0.0
2018-Jan-30 06:00S 29°52' E 031°02'0 1.0
2018-Jan-30 05:30S 29°53' E 031°02'4 8.7
2018-Jan-30 05:00S 29°50' E 031°06'713.9
2018-Jan-30 04:30S 29°55' E 031°12'816.2
2018-Jan-30 04:00S 30°03' E 031°10'815.7
2018-Jan-30 03:30S 30°11' E 031°09'815.5
2018-Jan-30 03:00S 30°18' E 031°08'815.6
2018-Jan-30 02:30S 30°26' E 031°07'815.2
2018-Jan-30 02:00S 30°34' E 031°04'  

Dump ship's entire track history